Terminal Aerodrome Forecast
Issued by NWS

Home | Current Version | Previous Version | Text Only | Print | Product List | Glossary Off
Versions: 1 2 3 4 5 6 7 8 9 10 11 12 13 14 15 16 17 18 19 20 21 22 23

000
FTUS43 KGRB 302330
TAFMTW
TAF
KMTW 302330Z 3100/3124 20007KT P6SM SKC
     FM310300 VRB03KT 3SM BR SKC
      TEMPO 3106/3110 1SM BR SCT002
     FM311000 VRB03KT 2SM BR SCT002
      TEMPO 3110/3114 1/2SM FG BKN002
     FM311400 22005KT P6SM BKN020
     FM311600 21007KT P6SM SCT025 SCT200=

USA.gov is the U.S. government's official web portal to all federal, state and local government web resources and services.